Startpagina
METAR-TAF:

METAR-TAF

Vliegvelden :

Luchthaven Mitiga Internationaal

Tripoli, Libië

breedte: 32-54N, lengte: 13-17E, hoogte: 11 m

Actueel weer

Dit bericht is 42 minuten geleden gemaakt, om 07:50 UTC
Wind 3 kt uit variabele richting
Temperatuur 28°C
Vochtigheid 70%
Druk 1017 hPa
Zicht: 7000 m
Weinig wolken op 6000 ft

METAR: HLLM 180750Z VRB03KT 7000 FEW060 28/22 Q1017

Tijdstip: 10:32 (08:32 UTC)

Verwachting

Dit bericht is 3 uur en het 32 minuten geleden gemaakt, om 05:00 UTC
Verwachting geldig van 18 om 06 UTC tot 19 om 06 UTC
Wind 10 kt uit het noordnoordwesten
Zicht 10 km of meer
geen wolken onder 1500 m en geen cumulonimbus
Wijzigt naar
van 18 om 20 UTC tot 18 om 22 UTC
Wind 2 kt uit variabele richting
Zicht: 8000 m
Kans 30%
tussen TE en het MP UTC
Zicht: 5000 m
nevel

TAF: HLLM 180500Z 1806/1906 34010KT CAVOK BECMG 1820/1822 VRB02KT 8000 NSC PROB30 TEMPO1900/1906 5000 BR

Waarnemingen en weersverwachtingen van meer dan 4000 vliegvelden (METAR en TAF).

De beschikbare stations zijn de gele en rode punten op de kaart.

Ga met uw muis naar het station om de naam te zien.

Klik dan om waarnemingen en weersverwachtingen te zien.

kaart wijzigen: klik op de groene knoppen met een zwart kruis om in te zoomen, op de groene knop met een streepje om uit te zoomen of op de groene pijlen voor aangrenzende kaarten.


METAR-TAF: